Time;durP1;ratioP1;P1;durP2;ratioP2;P2;SDS_P1;SDS_P2;PMS_P1;PMS_P2;Temp;Humidity;BMP_temperature;BMP_pressure;BME280_temperature;BME280_humidity;BME280_pressure;Samples;Min_cycle;Max_cycle;Signal;HPM_P1;HPM_P2
2023/12/10 00:02:13;;;;;;;2.67;1.57;;;18.70;40.50;;;;;;4983620;28;20252;-69
2023/12/10 00:04:39;;;;;;;3.40;1.50;;;18.70;40.50;;;;;;4986459;28;20223;-69
2023/12/10 00:07:05;;;;;;;2.50;1.67;;;18.70;40.50;;;;;;4987035;28;20257;-68
2023/12/10 00:09:31;;;;;;;2.13;1.57;;;18.70;40.60;;;;;;4986870;28;20727;-68
2023/12/10 00:11:56;;;;;;;2.03;1.60;;;18.70;40.50;;;;;;4989537;28;21050;-68
2023/12/10 00:14:24;;;;;;;2.50;1.73;;;18.70;40.50;;;;;;4987641;28;20258;-69
2023/12/10 00:16:50;;;;;;;2.23;1.80;;;18.60;40.30;;;;;;4986204;28;20283;-69
2023/12/10 00:19:16;;;;;;;2.93;2.00;;;18.60;40.40;;;;;;4986715;28;20428;-69
2023/12/10 00:21:41;;;;;;;2.07;1.40;;;18.60;40.30;;;;;;4981876;28;20231;-69
2023/12/10 00:24:07;;;;;;;3.20;2.10;;;18.60;40.30;;;;;;4988222;28;20223;-69
2023/12/10 00:26:32;;;;;;;2.23;2.03;;;18.60;40.20;;;;;;4987820;28;21837;-69
2023/12/10 00:28:58;;;;;;;2.37;1.40;;;18.60;40.30;;;;;;4988133;28;20682;-69
2023/12/10 00:31:23;;;;;;;2.97;1.60;;;18.60;41.00;;;;;;4987913;28;20244;-69
2023/12/10 00:33:49;;;;;;;2.30;1.77;;;18.60;40.20;;;;;;4988486;28;20310;-68
2023/12/10 00:36:15;;;;;;;2.37;1.60;;;18.60;40.20;;;;;;4985271;28;20235;-69
2023/12/10 00:38:45;;;;;;;4.40;1.60;;;18.60;40.30;;;;;;4981047;28;20326;-68
2023/12/10 00:41:11;;;;;;;3.27;1.63;;;18.70;41.10;;;;;;4980626;28;20318;-69
2023/12/10 00:43:37;;;;;;;1.57;1.47;;;18.70;40.50;;;;;;4986003;28;20509;-69
2023/12/10 00:46:04;;;;;;;3.77;1.40;;;18.60;40.20;;;;;;4988188;28;20530;-69
2023/12/10 00:48:29;;;;;;;4.50;2.37;;;18.60;40.20;;;;;;4986280;28;20440;-68
2023/12/10 00:50:55;;;;;;;2.10;1.87;;;18.60;40.20;;;;;;4986600;28;20435;-69
2023/12/10 00:53:20;;;;;;;2.10;1.50;;;18.60;40.20;;;;;;4986623;28;20230;-69
2023/12/10 00:55:46;;;;;;;4.33;2.47;;;18.60;40.20;;;;;;4981031;28;20544;-69
2023/12/10 00:58:13;;;;;;;2.40;1.73;;;18.60;40.30;;;;;;4983912;28;20219;-69
2023/12/10 01:00:40;;;;;;;2.60;1.80;;;18.60;40.30;;;;;;4985823;28;21041;-69
2023/12/10 01:03:06;;;;;;;2.63;1.53;;;18.60;40.20;;;;;;4980548;28;21332;-68
2023/12/10 01:05:32;;;;;;;4.07;1.97;;;18.60;40.20;;;;;;4984786;28;20831;-68
2023/12/10 01:07:58;;;;;;;2.83;1.83;;;18.60;40.20;;;;;;4986228;28;20469;-69
2023/12/10 01:10:25;;;;;;;3.00;1.60;;;18.60;41.00;;;;;;4986858;28;21048;-70
2023/12/10 01:12:50;;;;;;;1.90;1.50;;;18.60;40.30;;;;;;4984140;28;20232;-68
2023/12/10 01:15:17;;;;;;;2.70;1.77;;;18.60;40.30;;;;;;4987703;28;20434;-69
2023/12/10 01:17:43;;;;;;;3.20;2.10;;;18.60;40.20;;;;;;4982490;28;20239;-69
2023/12/10 01:20:09;;;;;;;2.37;1.80;;;18.60;40.20;;;;;;4986725;28;20455;-69
2023/12/10 01:22:34;;;;;;;2.70;1.70;;;18.60;40.20;;;;;;4981940;28;20238;-68
2023/12/10 01:25:01;;;;;;;2.90;2.10;;;18.60;40.20;;;;;;4985531;28;20215;-68
2023/12/10 01:27:26;;;;;;;3.67;1.93;;;18.60;40.90;;;;;;4984688;28;20947;-69
2023/12/10 01:29:52;;;;;;;2.57;1.70;;;18.60;40.20;;;;;;4985440;28;20476;-69
2023/12/10 01:32:18;;;;;;;6.90;2.70;;;18.60;40.20;;;;;;4985173;28;20242;-68
2023/12/10 01:34:44;;;;;;;4.17;1.73;;;18.60;40.20;;;;;;4984036;28;20227;-69
2023/12/10 01:37:10;;;;;;;4.30;1.77;;;18.60;40.20;;;;;;4986284;28;20238;-69
2023/12/10 01:39:35;;;;;;;2.20;1.63;;;18.60;40.10;;;;;;4980101;28;20689;-69
2023/12/10 01:42:02;;;;;;;3.40;1.80;;;18.60;40.10;;;;;;4984151;28;20333;-68
2023/12/10 01:44:28;;;;;;;2.10;1.90;;;18.60;40.10;;;;;;4983706;28;20220;-69
2023/12/10 01:46:55;;;;;;;2.90;1.60;;;18.60;40.10;;;;;;4982223;28;20468;-69
2023/12/10 01:49:23;;;;;;;5.80;2.57;;;18.60;40.10;;;;;;4984702;28;20231;-69
2023/12/10 01:51:49;;;;;;;2.10;1.60;;;18.60;40.10;;;;;;4987871;28;20628;-68
2023/12/10 01:54:23;;;;;;;2.17;2.00;;;18.60;40.10;;;;;;4983923;28;20442;-68
2023/12/10 01:56:50;;;;;;;2.23;1.60;;;18.60;40.00;;;;;;4985852;28;20450;-68
2023/12/10 01:59:20;;;;;;;1.87;1.50;;;18.60;40.10;;;;;;4980746;28;20506;-69
2023/12/10 02:01:46;;;;;;;1.53;1.40;;;18.60;40.10;;;;;;4984809;28;20959;-68
2023/12/10 02:04:15;;;;;;;2.33;1.60;;;18.60;40.10;;;;;;4983139;28;20464;-68
2023/12/10 02:06:42;;;;;;;2.40;1.90;;;18.60;40.10;;;;;;4982308;28;20442;-68
2023/12/10 02:09:13;;;;;;;2.50;1.90;;;18.60;40.00;;;;;;4986662;28;20444;-68
2023/12/10 02:11:39;;;;;;;3.00;1.50;;;18.60;40.10;;;;;;4987644;28;20925;-68
2023/12/10 02:14:05;;;;;;;2.80;1.63;;;18.60;40.00;;;;;;4984425;28;20588;-69
2023/12/10 02:16:31;;;;;;;2.10;1.40;;;18.60;40.00;;;;;;4984373;28;20445;-69
2023/12/10 02:18:57;;;;;;;3.80;2.07;;;18.60;40.00;;;;;;4984418;28;20224;-69
2023/12/10 02:21:24;;;;;;;4.03;1.50;;;18.60;40.00;;;;;;4988638;28;20259;-68
2023/12/10 02:24:01;;;;;;;2.53;2.23;;;18.60;39.90;;;;;;4983411;28;20220;-69
2023/12/10 02:26:27;;;;;;;4.70;1.60;;;18.60;40.00;;;;;;4982054;28;20512;-69
2023/12/10 02:28:53;;;;;;;2.70;1.40;;;18.60;40.00;;;;;;4985544;28;20494;-69
2023/12/10 02:31:19;;;;;;;1.97;1.77;;;18.60;40.00;;;;;;4984048;28;20546;-69
2023/12/10 02:33:45;;;;;;;2.67;1.60;;;18.60;40.00;;;;;;4982377;28;20431;-68
2023/12/10 02:36:12;;;;;;;1.80;1.30;;;18.60;40.00;;;;;;4984201;28;20438;-68
2023/12/10 02:38:37;;;;;;;3.67;1.93;;;18.60;40.00;;;;;;4984845;28;20574;-69
2023/12/10 02:41:03;;;;;;;2.27;1.70;;;18.60;40.00;;;;;;4985398;28;20431;-69
2023/12/10 02:43:29;;;;;;;2.30;1.60;;;18.60;40.00;;;;;;4984876;28;20310;-68
2023/12/10 02:45:54;;;;;;;1.50;1.27;;;18.60;40.00;;;;;;4985341;28;20246;-68
2023/12/10 02:48:22;;;;;;;2.33;1.80;;;18.60;40.00;;;;;;4986825;28;20231;-68
2023/12/10 02:50:51;;;;;;;1.90;1.50;;;18.60;40.00;;;;;;4985656;28;20615;-68
2023/12/10 02:53:17;;;;;;;3.03;1.40;;;18.60;40.00;;;;;;4986024;28;20470;-65
2023/12/10 02:55:43;;;;;;;2.17;1.43;;;18.60;40.00;;;;;;4978401;28;20546;-69
2023/12/10 02:58:09;;;;;;;1.73;1.60;;;18.60;40.00;;;;;;4983131;28;20436;-68
2023/12/10 03:00:34;;;;;;;3.00;1.60;;;18.60;40.00;;;;;;4980603;28;20302;-68
2023/12/10 03:03:00;;;;;;;1.60;1.33;;;18.60;40.00;;;;;;4987774;28;20227;-68
2023/12/10 03:05:26;;;;;;;1.70;1.47;;;18.60;40.00;;;;;;4986005;28;20219;-68
2023/12/10 03:07:52;;;;;;;1.77;1.60;;;18.60;40.10;;;;;;4989072;28;20442;-68
2023/12/10 03:10:18;;;;;;;2.97;1.60;;;18.60;40.10;;;;;;4987514;28;20439;-68
2023/12/10 03:12:44;;;;;;;1.90;1.70;;;18.60;40.10;;;;;;4986379;28;20582;-68
2023/12/10 03:15:09;;;;;;;2.67;1.80;;;18.60;40.10;;;;;;4988370;28;20297;-68
2023/12/10 03:17:35;;;;;;;2.07;1.40;;;18.60;40.10;;;;;;4977695;28;20227;-68
2023/12/10 03:20:01;;;;;;;1.90;1.40;;;18.50;40.00;;;;;;4989005;28;20293;-69
2023/12/10 03:22:26;;;;;;;1.90;1.53;;;18.60;40.10;;;;;;4988679;28;20239;-69
2023/12/10 03:24:52;;;;;;;2.63;1.53;;;18.50;40.00;;;;;;4985132;28;20338;-68
2023/12/10 03:27:17;;;;;;;3.63;1.23;;;18.50;40.00;;;;;;4987533;28;20226;-68
2023/12/10 03:29:43;;;;;;;1.87;1.40;;;18.50;40.70;;;;;;4987851;28;21316;-67
2023/12/10 03:32:09;;;;;;;1.50;1.40;;;18.60;40.00;;;;;;4987033;28;20327;-69
2023/12/10 03:34:34;;;;;;;2.80;1.20;;;18.60;40.10;;;;;;4988088;28;20309;-69
2023/12/10 03:37:00;;;;;;;1.40;1.30;;;18.60;40.10;;;;;;4986132;28;20224;-69
2023/12/10 03:39:26;;;;;;;1.73;1.40;;;18.60;40.00;;;;;;4985697;28;20227;-68
2023/12/10 03:41:52;;;;;;;1.50;1.40;;;18.60;40.10;;;;;;4988260;28;20255;-68
2023/12/10 03:44:18;;;;;;;2.20;1.63;;;18.50;40.00;;;;;;4988561;28;20223;-69
2023/12/10 03:46:43;;;;;;;2.27;1.40;;;18.60;40.10;;;;;;4987038;28;23122;-68
2023/12/10 03:49:09;;;;;;;2.07;1.50;;;18.60;40.10;;;;;;4989386;28;20235;-68
2023/12/10 03:51:35;;;;;;;1.43;1.03;;;18.60;40.10;;;;;;4982716;28;20266;-68
2023/12/10 03:54:01;;;;;;;1.77;1.30;;;18.50;40.00;;;;;;4990024;28;21350;-69
2023/12/10 03:56:27;;;;;;;1.90;1.27;;;18.60;40.10;;;;;;4989059;28;20277;-69
2023/12/10 03:58:52;;;;;;;1.80;1.30;;;18.60;40.10;;;;;;4985664;28;20223;-68
2023/12/10 04:01:18;;;;;;;1.77;1.30;;;18.50;40.00;;;;;;4984954;28;20227;-68
2023/12/10 04:03:43;;;;;;;1.43;1.10;;;18.60;40.10;;;;;;4987255;28;20321;-68
2023/12/10 04:06:09;;;;;;;1.47;1.20;;;18.50;40.10;;;;;;4988839;28;20421;-68
2023/12/10 04:08:35;;;;;;;1.33;1.20;;;18.60;40.10;;;;;;4986338;28;21161;-68
2023/12/10 04:11:00;;;;;;;2.20;1.30;;;18.50;40.10;;;;;;4985781;28;20281;-68
2023/12/10 04:13:26;;;;;;;2.07;1.20;;;18.50;40.10;;;;;;4985928;28;20227;-68
2023/12/10 04:15:52;;;;;;;1.70;1.40;;;18.50;40.10;;;;;;4986846;28;20239;-68
2023/12/10 04:18:17;;;;;;;1.50;1.40;;;18.50;40.10;;;;;;4984457;28;20236;-68
2023/12/10 04:20:43;;;;;;;2.27;1.57;;;18.50;40.10;;;;;;4984950;28;20223;-69
2023/12/10 04:23:09;;;;;;;1.90;1.40;;;18.60;40.10;;;;;;4988916;28;20231;-69
2023/12/10 04:25:35;;;;;;;1.93;1.40;;;18.60;40.10;;;;;;4985905;28;20448;-69
2023/12/10 04:28:01;;;;;;;1.60;1.50;;;18.60;40.10;;;;;;4984482;28;20416;-68
2023/12/10 04:30:26;;;;;;;1.60;1.30;;;18.50;40.10;;;;;;4983868;28;20685;-69
2023/12/10 04:32:55;;;;;;;1.57;1.20;;;18.50;40.10;;;;;;4988590;28;20236;-68
2023/12/10 04:35:21;;;;;;;2.20;1.43;;;18.60;40.10;;;;;;4984942;28;20228;-68
2023/12/10 04:37:46;;;;;;;2.50;1.40;;;18.50;40.10;;;;;;4984202;28;22428;-68
2023/12/10 04:40:13;;;;;;;2.83;1.30;;;18.50;40.10;;;;;;4989341;28;20220;-68
2023/12/10 04:42:39;;;;;;;1.57;1.30;;;18.60;40.20;;;;;;4985873;28;20224;-68
2023/12/10 04:45:06;;;;;;;1.57;1.20;;;18.50;40.20;;;;;;4987029;28;20474;-68
2023/12/10 04:47:32;;;;;;;1.80;1.30;;;18.50;40.10;;;;;;4982173;28;20306;-69
2023/12/10 04:49:58;;;;;;;1.87;1.40;;;18.50;40.10;;;;;;4985794;28;20475;-68
2023/12/10 04:52:23;;;;;;;1.70;1.13;;;18.50;40.10;;;;;;4984354;28;20839;-68
2023/12/10 04:54:49;;;;;;;1.50;1.20;;;18.60;40.10;;;;;;4986575;28;20667;-68
2023/12/10 04:57:15;;;;;;;2.70;1.57;;;18.60;40.10;;;;;;4984572;28;20329;-68
2023/12/10 04:59:40;;;;;;;2.00;1.30;;;18.60;40.10;;;;;;4986219;28;20248;-68
2023/12/10 05:02:06;;;;;;;1.70;1.30;;;18.60;40.10;;;;;;4987663;28;20635;-69
2023/12/10 05:04:31;;;;;;;2.27;1.30;;;18.60;40.10;;;;;;4985517;28;20331;-68
2023/12/10 05:06:57;;;;;;;1.97;1.17;;;18.60;40.00;;;;;;4984140;28;20270;-69
2023/12/10 05:09:22;;;;;;;2.00;1.50;;;18.60;40.10;;;;;;4985475;28;20227;-68
2023/12/10 05:11:48;;;;;;;1.27;1.17;;;18.60;40.00;;;;;;4984642;28;20829;-68
2023/12/10 05:14:14;;;;;;;1.33;1.20;;;18.60;40.00;;;;;;4988471;28;20247;-68
2023/12/10 05:16:39;;;;;;;1.20;0.93;;;18.60;40.00;;;;;;4978066;28;20223;-68
2023/12/10 05:19:05;;;;;;;1.53;1.43;;;18.60;40.00;;;;;;4983290;28;20335;-68
2023/12/10 05:21:30;;;;;;;2.00;1.40;;;18.60;40.00;;;;;;4984650;28;20281;-68
2023/12/10 05:23:57;;;;;;;1.80;1.53;;;18.60;40.00;;;;;;4985658;28;20235;-69
2023/12/10 05:26:22;;;;;;;2.40;1.20;;;18.60;39.90;;;;;;4986721;28;20225;-68
2023/12/10 05:28:48;;;;;;;1.37;1.27;;;18.60;40.00;;;;;;4984357;28;20448;-68
2023/12/10 05:31:14;;;;;;;1.63;1.10;;;18.60;39.90;;;;;;4970056;28;20306;-68
2023/12/10 05:33:39;;;;;;;1.40;1.30;;;18.60;39.90;;;;;;4982368;28;20318;-68
2023/12/10 05:36:06;;;;;;;2.40;1.50;;;18.60;39.90;;;;;;4985758;28;20432;-68
2023/12/10 05:38:31;;;;;;;1.47;1.37;;;18.60;39.90;;;;;;4984389;28;20230;-68
2023/12/10 05:40:57;;;;;;;1.50;1.40;;;18.60;39.90;;;;;;4985946;28;20465;-68
2023/12/10 05:43:22;;;;;;;2.10;1.20;;;18.60;39.90;;;;;;4983723;28;20231;-68
2023/12/10 05:45:48;;;;;;;2.50;1.20;;;18.60;39.90;;;;;;4984277;28;20308;-68
2023/12/10 05:48:13;;;;;;;2.30;1.60;;;18.60;39.90;;;;;;4985187;28;20310;-68
2023/12/10 05:50:39;;;;;;;1.30;1.20;;;18.60;39.80;;;;;;4985588;28;20216;-67
2023/12/10 05:53:04;;;;;;;2.70;1.30;;;18.60;39.90;;;;;;4972739;28;20354;-68
2023/12/10 05:55:30;;;;;;;1.40;1.30;;;18.60;39.80;;;;;;4983621;28;20261;-68
2023/12/10 05:57:56;;;;;;;3.40;1.77;;;18.60;39.80;;;;;;4984909;28;20817;-68
2023/12/10 06:00:22;;;;;;;1.73;1.10;;;18.60;39.90;;;;;;4983439;28;20241;-68
2023/12/10 06:02:48;;;;;;;1.50;1.30;;;18.60;39.90;;;;;;4984744;28;20259;-68
2023/12/10 06:05:14;;;;;;;1.43;1.20;;;18.60;39.80;;;;;;4984226;28;20432;-68
2023/12/10 06:07:39;;;;;;;1.30;1.00;;;18.60;39.80;;;;;;4981944;28;20491;-68
2023/12/10 06:10:07;;;;;;;1.93;1.00;;;18.60;39.80;;;;;;4988056;28;20304;-68
2023/12/10 06:12:32;;;;;;;1.63;1.00;;;18.60;39.80;;;;;;4982756;28;20289;-68
2023/12/10 06:14:58;;;;;;;1.63;1.37;;;18.60;39.80;;;;;;4983979;28;20843;-68
2023/12/10 06:17:24;;;;;;;2.47;1.27;;;18.60;39.70;;;;;;4976270;28;20241;-68
2023/12/10 06:19:49;;;;;;;1.27;1.10;;;18.60;39.70;;;;;;4966345;28;20228;-68
2023/12/10 06:22:15;;;;;;;1.77;1.00;;;18.60;39.80;;;;;;4963109;28;20342;-68
2023/12/10 06:24:40;;;;;;;2.00;1.03;;;18.60;39.70;;;;;;4967926;28;20669;-68
2023/12/10 06:27:06;;;;;;;2.93;1.27;;;18.60;39.80;;;;;;4964169;28;20228;-68
2023/12/10 06:29:32;;;;;;;1.17;1.07;;;18.60;39.70;;;;;;4961106;28;20235;-68
2023/12/10 06:31:58;;;;;;;1.97;1.20;;;18.60;39.70;;;;;;4963001;28;20361;-68
2023/12/10 06:34:23;;;;;;;1.37;1.20;;;18.60;39.70;;;;;;4966173;28;20855;-68
2023/12/10 06:36:49;;;;;;;1.77;1.13;;;18.60;39.70;;;;;;4964641;28;20221;-68
2023/12/10 06:39:16;;;;;;;1.23;1.13;;;18.60;39.60;;;;;;4962764;28;20771;-71
2023/12/10 06:41:42;;;;;;;1.73;1.40;;;18.60;39.60;;;;;;4968791;28;20283;-72
2023/12/10 06:44:09;;;;;;;1.37;1.10;;;18.60;39.60;;;;;;4968057;28;20436;-72
2023/12/10 06:46:37;;;;;;;1.53;1.10;;;18.60;39.60;;;;;;4964454;28;21395;-71
2023/12/10 06:49:02;;;;;;;1.67;1.20;;;18.60;39.60;;;;;;4962439;28;20468;-70
2023/12/10 06:51:28;;;;;;;1.77;1.30;;;18.60;39.60;;;;;;4971817;28;21098;-70
2023/12/10 06:53:53;;;;;;;1.90;1.17;;;18.60;39.60;;;;;;4966345;28;20229;-69
2023/12/10 06:56:19;;;;;;;2.63;1.57;;;18.60;39.60;;;;;;4965976;28;20235;-70
2023/12/10 06:58:44;;;;;;;2.30;1.10;;;18.60;39.50;;;;;;4966750;28;20279;-73
2023/12/10 07:01:10;;;;;;;2.10;1.17;;;18.60;39.50;;;;;;4972163;28;20283;-72
2023/12/10 07:03:36;;;;;;;2.13;1.30;;;18.60;39.50;;;;;;4975049;28;20854;-70
2023/12/10 07:06:03;;;;;;;1.73;1.00;;;18.60;39.50;;;;;;4977045;28;20221;-70
2023/12/10 07:08:30;;;;;;;1.50;1.10;;;18.60;39.50;;;;;;4962852;28;20259;-70
2023/12/10 07:10:55;;;;;;;1.93;1.27;;;18.60;39.50;;;;;;4976472;28;20990;-70
2023/12/10 07:13:21;;;;;;;1.60;1.07;;;18.60;39.50;;;;;;4975793;28;20464;-70
2023/12/10 07:15:46;;;;;;;2.60;1.30;;;18.60;39.50;;;;;;4975626;28;20315;-70
2023/12/10 07:18:12;;;;;;;1.93;1.23;;;18.60;39.40;;;;;;4986723;28;20250;-70
2023/12/10 07:20:38;;;;;;;4.07;1.50;;;18.60;39.40;;;;;;4995941;28;20216;-70
2023/12/10 07:23:03;;;;;;;1.60;1.50;;;18.60;39.40;;;;;;4998564;28;20219;-70
2023/12/10 07:25:29;;;;;;;4.53;2.63;;;18.60;39.30;;;;;;4998377;28;20241;-70
2023/12/10 07:27:54;;;;;;;3.43;2.20;;;18.60;39.30;;;;;;4986939;28;20245;-69
2023/12/10 07:30:20;;;;;;;1.30;1.13;;;18.60;39.20;;;;;;4988674;28;20228;-69
2023/12/10 07:32:46;;;;;;;2.50;1.10;;;18.60;39.20;;;;;;4979227;28;20339;-68
2023/12/10 07:35:11;;;;;;;2.10;1.40;;;18.60;39.20;;;;;;4989520;28;20219;-69
2023/12/10 07:37:37;;;;;;;1.53;1.30;;;18.60;39.20;;;;;;4988206;28;20224;-69
2023/12/10 07:40:03;;;;;;;2.17;1.60;;;18.60;39.20;;;;;;4992644;28;20223;-69
2023/12/10 07:42:28;;;;;;;4.70;1.70;;;18.60;39.20;;;;;;4992191;28;20223;-69
2023/12/10 07:44:54;;;;;;;1.80;1.50;;;18.60;39.20;;;;;;4996643;28;20239;-69
2023/12/10 07:47:20;;;;;;;4.20;1.90;;;18.60;39.20;;;;;;4992305;28;20251;-68
2023/12/10 07:49:45;;;;;;;1.87;1.70;;;18.60;39.20;;;;;;4994162;28;20232;-68
2023/12/10 07:52:11;;;;;;;1.97;1.40;;;18.60;39.20;;;;;;4994461;28;20713;-69
2023/12/10 07:54:37;;;;;;;2.20;1.97;;;18.60;39.20;;;;;;4985378;28;20714;-68
2023/12/10 07:57:03;;;;;;;2.10;1.90;;;18.60;39.10;;;;;;4993890;28;20238;-67
2023/12/10 07:59:28;;;;;;;5.17;2.33;;;18.60;39.20;;;;;;4992806;28;20439;-68
2023/12/10 08:01:54;;;;;;;2.50;1.70;;;18.60;39.20;;;;;;4992877;28;20235;-68
2023/12/10 08:04:20;;;;;;;3.30;2.20;;;18.60;39.10;;;;;;4986974;28;20225;-69
2023/12/10 08:06:46;;;;;;;5.63;2.07;;;18.60;39.20;;;;;;4993142;28;20431;-70
2023/12/10 08:09:11;;;;;;;4.17;3.20;;;18.70;39.10;;;;;;4990884;28;20371;-70
2023/12/10 08:11:37;;;;;;;4.60;2.50;;;18.70;39.20;;;;;;4988844;28;20235;-69
2023/12/10 08:14:02;;;;;;;4.60;2.00;;;18.70;39.10;;;;;;4994945;28;20223;-70
2023/12/10 08:16:28;;;;;;;2.63;2.30;;;18.70;39.00;;;;;;4992579;28;20298;-69
2023/12/10 08:18:54;;;;;;;3.57;2.87;;;18.70;39.00;;;;;;4995280;28;20235;-69
2023/12/10 08:21:19;;;;;;;3.00;2.73;;;18.70;39.10;;;;;;4987952;28;20234;-69
2023/12/10 08:23:45;;;;;;;5.10;2.60;;;18.70;39.10;;;;;;4990581;28;20714;-70
2023/12/10 08:26:10;;;;;;;5.53;2.77;;;18.70;39.10;;;;;;4997289;28;20610;-70
2023/12/10 08:28:36;;;;;;;3.23;2.20;;;18.70;39.20;;;;;;4991796;28;20231;-68
2023/12/10 08:31:01;;;;;;;4.93;3.00;;;18.70;39.20;;;;;;4994514;28;20222;-68
2023/12/10 08:33:27;;;;;;;6.93;2.73;;;18.70;39.20;;;;;;4990639;28;20254;-69
2023/12/10 08:35:53;;;;;;;4.33;3.17;;;18.70;39.30;;;;;;4996194;28;20289;-68
2023/12/10 08:38:18;;;;;;;3.90;2.33;;;18.70;39.20;;;;;;4990715;28;20255;-69
2023/12/10 08:40:44;;;;;;;4.57;2.90;;;18.70;39.20;;;;;;4993091;28;20232;-68
2023/12/10 08:43:10;;;;;;;4.53;3.13;;;18.70;39.30;;;;;;4986210;28;20230;-69
2023/12/10 08:45:35;;;;;;;4.77;2.37;;;18.70;39.30;;;;;;4984752;28;20254;-68
2023/12/10 08:48:01;;;;;;;4.70;2.53;;;18.70;39.30;;;;;;4988492;28;20223;-69
2023/12/10 08:50:27;;;;;;;2.97;2.63;;;18.70;39.30;;;;;;4990696;28;20681;-69
2023/12/10 08:52:53;;;;;;;7.23;2.70;;;18.70;39.30;;;;;;4985642;28;20463;-68
2023/12/10 08:55:18;;;;;;;4.30;2.67;;;18.70;39.40;;;;;;4989718;28;20627;-68
2023/12/10 08:57:44;;;;;;;13.80;8.20;;;18.70;39.50;;;;;;4985789;28;21674;-70
2023/12/10 09:00:10;;;;;;;5.23;2.57;;;18.70;39.50;;;;;;4990191;28;20637;-70
2023/12/10 09:02:36;;;;;;;4.40;2.93;;;18.70;39.50;;;;;;4990674;28;20219;-69
2023/12/10 09:05:02;;;;;;;3.80;2.43;;;18.70;39.50;;;;;;4992844;28;20434;-69
2023/12/10 09:07:28;;;;;;;7.73;3.93;;;18.70;39.50;;;;;;4996054;28;20228;-69
2023/12/10 09:09:59;;;;;;;3.87;3.47;;;18.70;39.50;;;;;;4990678;28;20595;-67
2023/12/10 09:12:27;;;;;;;2.80;2.43;;;18.70;39.60;;;;;;4990892;28;20469;-67
2023/12/10 09:14:53;;;;;;;5.90;3.23;;;18.70;39.70;;;;;;4992134;28;20522;-70
2023/12/10 09:17:22;;;;;;;6.87;3.70;;;18.60;39.50;;;;;;4985992;28;20513;-70
2023/12/10 09:19:48;;;;;;;6.87;3.40;;;18.60;39.50;;;;;;4981584;28;20440;-69
2023/12/10 09:22:13;;;;;;;5.10;3.67;;;18.60;39.60;;;;;;4978183;28;22098;-68
2023/12/10 09:24:40;;;;;;;5.00;4.10;;;18.60;39.50;;;;;;4984450;28;20966;-68
2023/12/10 09:27:06;;;;;;;3.43;3.13;;;18.70;39.60;;;;;;4989667;28;20212;-70
2023/12/10 09:29:38;;;;;;;7.53;4.07;;;18.60;39.50;;;;;;4987822;28;20469;-70
2023/12/10 09:32:07;;;;;;;6.60;4.47;;;18.60;39.60;;;;;;4987781;28;20436;-70
2023/12/10 09:34:33;;;;;;;4.40;3.87;;;18.70;39.70;;;;;;4985505;28;20556;-69
2023/12/10 09:37:02;;;;;;;4.83;3.63;;;18.60;39.60;;;;;;4986704;28;20508;-69
2023/12/10 09:39:28;;;;;;;6.67;3.80;;;18.60;39.60;;;;;;4991319;28;20466;-69
2023/12/10 09:41:54;;;;;;;8.57;4.37;;;18.60;39.60;;;;;;4991560;28;20456;-69
2023/12/10 09:44:19;;;;;;;8.40;4.40;;;18.60;39.70;;;;;;4990232;28;20248;-69
2023/12/10 09:46:45;;;;;;;7.17;4.33;;;18.60;39.70;;;;;;4990630;28;20733;-68
2023/12/10 09:49:13;;;;;;;5.83;3.77;;;18.60;39.70;;;;;;4992609;28;20219;-69
2023/12/10 09:51:39;;;;;;;6.90;4.40;;;18.60;39.70;;;;;;4992553;28;20774;-69
2023/12/10 09:54:05;;;;;;;5.43;3.70;;;18.60;39.70;;;;;;4989865;28;21078;-69
2023/12/10 09:56:30;;;;;;;4.80;3.37;;;18.60;39.70;;;;;;4992446;28;20461;-69
2023/12/10 09:58:56;;;;;;;8.20;4.80;;;18.60;39.80;;;;;;4977497;28;20211;-69
2023/12/10 10:01:21;;;;;;;10.33;5.60;;;18.60;39.70;;;;;;4993437;28;20216;-69
2023/12/10 10:03:47;;;;;;;8.57;6.03;;;18.60;39.80;;;;;;4989901;28;20223;-69
2023/12/10 10:06:13;;;;;;;13.00;4.70;;;18.60;39.80;;;;;;4989835;28;20303;-69
2023/12/10 10:08:38;;;;;;;6.30;4.60;;;18.60;39.80;;;;;;4992251;28;20219;-69
2023/12/10 10:11:04;;;;;;;5.47;4.70;;;18.60;39.90;;;;;;4996904;28;20281;-69
2023/12/10 10:13:30;;;;;;;5.10;4.33;;;18.60;39.80;;;;;;4995357;28;20794;-69
2023/12/10 10:15:55;;;;;;;7.60;4.20;;;18.60;39.80;;;;;;4992791;28;20227;-69
2023/12/10 10:18:21;;;;;;;4.80;4.40;;;18.60;39.80;;;;;;4994975;28;20245;-69
2023/12/10 10:20:47;;;;;;;5.20;4.43;;;18.60;40.10;;;;;;4992084;28;20385;-69
2023/12/10 10:23:14;;;;;;;5.63;4.10;;;18.60;39.90;;;;;;4993588;28;20227;-69
2023/12/10 10:25:40;;;;;;;4.70;3.47;;;18.60;40.20;;;;;;4988535;28;20277;-69
2023/12/10 10:28:09;;;;;;;5.10;4.60;;;18.60;39.90;;;;;;4991789;28;20470;-69
2023/12/10 10:30:35;;;;;;;7.73;4.60;;;18.60;39.80;;;;;;4987383;28;20461;-69
2023/12/10 10:33:00;;;;;;;6.43;4.30;;;18.60;39.90;;;;;;4994220;28;20455;-68
2023/12/10 10:35:27;;;;;;;8.30;4.43;;;18.60;39.90;;;;;;4995795;28;20233;-69
2023/12/10 10:37:54;;;;;;;4.00;3.13;;;18.60;39.90;;;;;;4995844;28;20250;-69
2023/12/10 10:40:20;;;;;;;6.17;4.23;;;18.60;39.90;;;;;;4993303;28;20424;-70
2023/12/10 10:42:45;;;;;;;6.80;4.70;;;18.60;39.90;;;;;;4995191;28;20432;-68
2023/12/10 10:45:11;;;;;;;6.57;3.53;;;18.60;40.00;;;;;;4992583;28;20447;-68
2023/12/10 10:47:37;;;;;;;5.73;4.40;;;18.60;39.90;;;;;;4989752;28;20216;-69
2023/12/10 10:50:03;;;;;;;6.70;3.83;;;18.60;40.00;;;;;;4987847;28;20228;-68
2023/12/10 10:52:33;;;;;;;3.47;3.10;;;18.60;39.90;;;;;;4987338;28;20415;-67
2023/12/10 10:55:00;;;;;;;6.50;3.90;;;18.60;39.90;;;;;;4989731;28;20595;-67
2023/12/10 10:57:36;;;;;;;4.83;3.77;;;18.60;40.00;;;;;;4986720;28;20471;-68
2023/12/10 11:00:17;;;;;;;4.93;3.63;;;18.60;39.90;;;;;;4991105;28;20474;-68
2023/12/10 11:02:43;;;;;;;7.30;4.80;;;18.70;40.00;;;;;;4985868;28;20547;-69
2023/12/10 11:05:08;;;;;;;6.17;3.60;;;18.70;40.20;;;;;;4991216;28;20472;-66
2023/12/10 11:07:34;;;;;;;4.60;4.00;;;18.60;40.00;;;;;;4994320;28;20447;-66
2023/12/10 11:10:01;;;;;;;4.13;3.70;;;18.70;40.10;;;;;;4975131;28;20234;-67
2023/12/10 11:12:39;;;;;;;5.77;4.00;;;18.70;40.10;;;;;;4996772;28;20288;-67
2023/12/10 11:15:14;;;;;;;4.60;4.20;;;18.70;40.10;;;;;;4989809;28;20443;-66
2023/12/10 11:17:53;;;;;;;5.20;3.70;;;18.70;40.20;;;;;;4987790;28;20500;-67
2023/12/10 11:20:34;;;;;;;3.90;3.27;;;18.70;40.10;;;;;;4986108;28;20423;-67
2023/12/10 11:23:05;;;;;;;14.00;4.23;;;18.70;40.10;;;;;;4983258;28;20479;-67
2023/12/10 11:25:31;;;;;;;6.20;4.37;;;18.70;40.10;;;;;;4983976;28;21273;-68
2023/12/10 11:28:00;;;;;;;6.13;3.63;;;18.70;40.10;;;;;;4983756;28;20460;-71
2023/12/10 11:30:27;;;;;;;4.67;3.63;;;18.70;40.10;;;;;;4986598;28;20560;-67
2023/12/10 11:32:53;;;;;;;4.53;3.10;;;18.70;40.20;;;;;;4985759;28;20492;-66
2023/12/10 11:35:19;;;;;;;6.23;3.93;;;18.70;40.20;;;;;;4985377;28;20440;-67
2023/12/10 11:37:45;;;;;;;5.70;3.33;;;18.70;40.20;;;;;;4985191;28;20461;-69
2023/12/10 11:40:11;;;;;;;6.90;4.23;;;18.70;40.90;;;;;;4987279;28;20311;-65
2023/12/10 11:42:36;;;;;;;4.73;3.17;;;18.70;40.20;;;;;;4984821;28;20586;-67
2023/12/10 11:45:04;;;;;;;6.90;3.60;;;18.70;40.20;;;;;;4972048;28;20239;-70
2023/12/10 11:47:29;;;;;;;5.97;3.43;;;18.70;40.30;;;;;;4982586;28;20224;-67
2023/12/10 11:49:55;;;;;;;5.93;3.27;;;18.70;40.20;;;;;;4977180;28;20762;-68
2023/12/10 11:52:21;;;;;;;3.97;3.27;;;18.70;40.20;;;;;;4991972;28;20315;-69
2023/12/10 11:54:47;;;;;;;4.10;3.80;;;18.70;40.30;;;;;;4982868;28;20362;-67
2023/12/10 11:57:13;;;;;;;3.67;3.37;;;18.70;40.20;;;;;;4986158;28;20431;-70
2023/12/10 11:59:39;;;;;;;4.00;3.20;;;18.70;40.20;;;;;;4980717;28;20959;-72
2023/12/10 12:02:06;;;;;;;3.40;3.10;;;18.70;40.20;;;;;;4978365;28;20247;-68
2023/12/10 12:04:33;;;;;;;4.00;3.60;;;18.70;40.30;;;;;;4986849;28;20714;-68
2023/12/10 12:06:58;;;;;;;3.13;2.90;;;18.70;40.30;;;;;;4981601;28;20432;-68
2023/12/10 12:09:25;;;;;;;3.10;2.80;;;18.70;40.30;;;;;;4989488;28;20440;-68
2023/12/10 12:11:51;;;;;;;2.67;2.40;;;18.70;40.30;;;;;;4987287;28;20235;-67
2023/12/10 12:14:18;;;;;;;3.20;2.90;;;18.70;40.30;;;;;;4986576;28;20440;-67
2023/12/10 12:16:45;;;;;;;2.80;2.53;;;18.70;40.50;;;;;;4983297;28;21353;-66
2023/12/10 12:19:11;;;;;;;3.60;2.40;;;18.70;40.40;;;;;;4988372;28;21240;-67
2023/12/10 12:21:36;;;;;;;5.33;2.90;;;18.70;40.50;;;;;;4987805;28;20972;-70
2023/12/10 12:24:02;;;;;;;3.60;2.80;;;18.70;40.50;;;;;;4986315;28;21089;-71
2023/12/10 12:26:28;;;;;;;2.73;2.53;;;18.70;40.50;;;;;;4990913;28;20231;-70
2023/12/10 12:28:53;;;;;;;2.27;2.07;;;18.70;40.50;;;;;;4987937;28;20878;-71
2023/12/10 12:31:19;;;;;;;4.63;2.27;;;18.70;40.60;;;;;;4987178;28;20290;-67
2023/12/10 12:33:44;;;;;;;2.43;2.20;;;18.70;40.50;;;;;;4986742;28;20220;-68
2023/12/10 12:36:10;;;;;;;2.00;1.90;;;18.70;40.50;;;;;;4987358;28;20223;-72
2023/12/10 12:38:35;;;;;;;1.80;1.70;;;18.70;40.70;;;;;;4984920;28;20219;-67
2023/12/10 12:41:01;;;;;;;3.00;2.00;;;18.70;40.60;;;;;;4991252;28;20258;-72